Lusaka, Zambia
Current Conditions -  °F | °C
As of 6:00 AM on Monday 22 Dec 2014 (Local Time) from FLKK Reporting Station
Broken Clouds Broken Clouds  
Wind Chill: 19°   Ceiling: 9000
Heat Index: 19°   Visibility: 6mi
Dew Point: 17°   Wind: 3mph
Humidity: 88%   Direction: 100°E
Pressure: 30.06"   Gusts: NA
Location:  15.42°S, 28.29°E
Report Text: FLKK 220400Z 10003KT 9999 FEW///CB BKN090 19/17 Q1018
Loading
Personal Weather Stations






























Interactive Weather Map New forecast layout! Learn more

10-Day Weather Forecast

Advertisements
Track Severe Weather on mobile